Главная страница
METAR-TAF:

METAR-TAF

Аэропорты :

Эсбьерг, Дания

широта: 55-32N, долгота: 008-34E, высота над уровнем моря: 30 м

Текущие метеонаблюдения

Эта сводка был подготовлена 21 минут назад, в 22:50 UTC
Ветер 6 Узел от восточный
Температура 1°C
Влажность 100%
Давление 1038 hPa
Видимость: 2300 м
дымка

METAR: EKEB 172250Z AUTO 08006KT 2300NDV BR NCD 01/01 Q1038

Время: 00:11 (23:11 UTC)

Прогноз

Эта сводка был подготовлена 5 часа и 48 минут назад, в 17:23 UTC
Прогноз действительный с 17-го 18 UTC до 17-го 23 UTC
Ветер 8 Узел от восточно-юго-восточный
Видимость: 7000 м
небольшая облачность на высоте 200 фута
временами
С 17-го 18 UTC до 17-го 23 UTC
Видимость: 3000 м
Тонкий туман, дымка

TAF: EKEB 171723Z 1718/1723 12008KT 7000 FEW002 TEMPO 1718/1723 3000 MIFG BR

Метеонаблюдения и прогнозы для более 4000 аэропортов (сводки METAR и TAF).

Имеющиеся станции представлены на карте желтыми и красными точками.

Чтобы увидеть название станции, наведите на нее мышь.

Затем щелкните, чтобы увидеть метеонаблюдения и метеопрогнозы.

Управление картой: чтобы увеличить масштаб, щелкните зеленые кнопки с черным крестиком; чтобы уменьшить масштаб, щелкните зеленую кнопку с тире; для просмотра соседних карт щелкайте зеленые стрелки.


METAR-TAF: